Gowanda, New York
Current Conditions -  °F | °C
As of 12:53 AM on Friday 19 Dec 2014 (Local Time) from KDKK Reporting Station
Haze Haze  
Wind Chill: 19°   Ceiling: 1300
Heat Index: 29°   Visibility: 6mi
Dew Point: 26°   Wind: 12mph
Humidity: 89%   Direction: 310°NW
Pressure: 30.1"   Gusts: NA
Location:  42.46°N, 78.94°W
Report Text: KDKK 190553Z AUTO 31010KT 6SM BR OVC013 M02/M03 A3010 RMK AO2 SLP202 I1000 I6000 T10171033 10000 21017 53004
Loading
Personal Weather Stations






























Interactive Weather Map New forecast layout! Learn more

10-Day Weather Forecast

Advertisements
Track Severe Weather on mobile